sensor_id;sensor_type;location;lat;lon;timestamp;pressure;altitude;pressure_sealevel;temperature
34125;BMP280;20110;53.120;5.786;2023-02-11T00:00:33;103211.25;;;11.47
34125;BMP280;20110;53.120;5.786;2023-02-11T00:02:59;103216.56;;;11.47
34125;BMP280;20110;53.120;5.786;2023-02-11T00:05:25;103189.00;;;11.12
34125;BMP280;20110;53.120;5.786;2023-02-11T00:07:50;103188.78;;;11.00
34125;BMP280;20110;53.120;5.786;2023-02-11T00:10:16;103148.72;;;10.71
34125;BMP280;20110;53.120;5.786;2023-02-11T00:12:42;103138.56;;;10.69
34125;BMP280;20110;53.120;5.786;2023-02-11T00:15:08;103157.63;;;10.92
34125;BMP280;20110;53.120;5.786;2023-02-11T00:17:34;103146.84;;;10.95
34125;BMP280;20110;53.120;5.786;2023-02-11T00:20:00;103124.13;;;10.85
34125;BMP280;20110;53.120;5.786;2023-02-11T00:22:26;103121.66;;;10.82
34125;BMP280;20110;53.120;5.786;2023-02-11T00:24:52;103120.75;;;10.85
34125;BMP280;20110;53.120;5.786;2023-02-11T00:27:18;103179.66;;;11.16
34125;BMP280;20110;53.120;5.786;2023-02-11T00:29:44;103140.38;;;10.87
34125;BMP280;20110;53.120;5.786;2023-02-11T00:32:10;103131.22;;;10.88
34125;BMP280;20110;53.120;5.786;2023-02-11T00:34:36;103205.56;;;11.30
34125;BMP280;20110;53.120;5.786;2023-02-11T00:37:03;103171.28;;;11.09
34125;BMP280;20110;53.120;5.786;2023-02-11T00:39:30;103174.56;;;11.27
34125;BMP280;20110;53.120;5.786;2023-02-11T00:41:56;103205.28;;;11.52
34125;BMP280;20110;53.120;5.786;2023-02-11T00:44:23;103177.88;;;11.61
34125;BMP280;20110;53.120;5.786;2023-02-11T00:46:49;103071.59;;;11.04
34125;BMP280;20110;53.120;5.786;2023-02-11T00:49:16;103142.88;;;11.68
34125;BMP280;20110;53.120;5.786;2023-02-11T00:51:42;103180.06;;;12.06
34125;BMP280;20110;53.120;5.786;2023-02-11T00:54:08;103175.50;;;12.22
34125;BMP280;20110;53.120;5.786;2023-02-11T00:56:34;103182.16;;;12.46
34125;BMP280;20110;53.120;5.786;2023-02-11T00:59:00;103139.31;;;12.50
34125;BMP280;20110;53.120;5.786;2023-02-11T01:01:26;103172.53;;;12.69
34125;BMP280;20110;53.120;5.786;2023-02-11T01:03:52;103171.38;;;12.56
34125;BMP280;20110;53.120;5.786;2023-02-11T01:06:18;103149.31;;;12.20
34125;BMP280;20110;53.120;5.786;2023-02-11T01:08:44;103136.03;;;11.91
34125;BMP280;20110;53.120;5.786;2023-02-11T01:11:17;103191.09;;;12.29
34125;BMP280;20110;53.120;5.786;2023-02-11T01:13:44;103159.59;;;12.13
34125;BMP280;20110;53.120;5.786;2023-02-11T01:16:11;103207.81;;;12.44
34125;BMP280;20110;53.120;5.786;2023-02-11T01:18:37;103184.19;;;12.37
34125;BMP280;20110;53.120;5.786;2023-02-11T01:21:04;103087.44;;;11.81
34125;BMP280;20110;53.120;5.786;2023-02-11T01:23:30;103167.88;;;12.50
34125;BMP280;20110;53.120;5.786;2023-02-11T01:25:56;103086.59;;;12.04
34125;BMP280;20110;53.120;5.786;2023-02-11T01:28:28;103039.88;;;11.74
34125;BMP280;20110;53.120;5.786;2023-02-11T01:30:55;103185.75;;;12.78
34125;BMP280;20110;53.120;5.786;2023-02-11T01:33:22;103139.53;;;12.46
34125;BMP280;20110;53.120;5.786;2023-02-11T01:35:49;103185.22;;;12.74
34125;BMP280;20110;53.120;5.786;2023-02-11T01:38:25;103166.94;;;12.67
34125;BMP280;20110;53.120;5.786;2023-02-11T01:41:01;103182.41;;;12.83
34125;BMP280;20110;53.120;5.786;2023-02-11T01:43:35;103183.94;;;12.90
34125;BMP280;20110;53.120;5.786;2023-02-11T01:46:19;103193.78;;;12.99
34125;BMP280;20110;53.120;5.786;2023-02-11T01:49:01;103189.31;;;13.10
34125;BMP280;20110;53.120;5.786;2023-02-11T01:51:40;103177.09;;;13.04
34125;BMP280;20110;53.120;5.786;2023-02-11T01:54:13;103177.91;;;13.10
34125;BMP280;20110;53.120;5.786;2023-02-11T01:57:01;103181.53;;;13.33
34125;BMP280;20110;53.120;5.786;2023-02-11T02:05:56;103156.25;;;13.54
34125;BMP280;20110;53.120;5.786;2023-02-11T02:08:51;103129.09;;;13.30
34125;BMP280;20110;53.120;5.786;2023-02-11T02:11:18;103152.50;;;13.40
34125;BMP280;20110;53.120;5.786;2023-02-11T02:13:44;103154.88;;;13.38
34125;BMP280;20110;53.120;5.786;2023-02-11T02:16:18;103167.19;;;13.50
34125;BMP280;20110;53.120;5.786;2023-02-11T02:25:40;103161.06;;;13.76
34125;BMP280;20110;53.120;5.786;2023-02-11T02:28:48;103162.59;;;13.82
34125;BMP280;20110;53.120;5.786;2023-02-11T02:34:28;103142.84;;;13.74
34125;BMP280;20110;53.120;5.786;2023-02-11T02:37:13;103129.97;;;13.73
34125;BMP280;20110;53.120;5.786;2023-02-11T02:39:44;103130.78;;;13.84
34125;BMP280;20110;53.120;5.786;2023-02-11T02:42:11;103092.00;;;13.63
34125;BMP280;20110;53.120;5.786;2023-02-11T02:44:38;103145.75;;;14.08
34125;BMP280;20110;53.120;5.786;2023-02-11T02:47:04;103146.88;;;14.33
34125;BMP280;20110;53.120;5.786;2023-02-11T02:49:30;103123.78;;;14.29
34125;BMP280;20110;53.120;5.786;2023-02-11T02:58:15;103154.72;;;14.42
34125;BMP280;20110;53.120;5.786;2023-02-11T03:01:11;103144.22;;;14.33
34125;BMP280;20110;53.120;5.786;2023-02-11T03:09:13;103126.25;;;14.02
34125;BMP280;20110;53.120;5.786;2023-02-11T03:11:40;102989.41;;;13.07
34125;BMP280;20110;53.120;5.786;2023-02-11T03:14:11;103139.25;;;14.14
34125;BMP280;20110;53.120;5.786;2023-02-11T03:16:38;103071.97;;;13.79
34125;BMP280;20110;53.120;5.786;2023-02-11T03:19:23;103113.94;;;14.04
34125;BMP280;20110;53.120;5.786;2023-02-11T03:21:52;103137.53;;;14.11
34125;BMP280;20110;53.120;5.786;2023-02-11T03:24:30;103127.53;;;14.06
34125;BMP280;20110;53.120;5.786;2023-02-11T03:27:07;103126.56;;;14.04
34125;BMP280;20110;53.120;5.786;2023-02-11T03:30:03;103143.66;;;14.23
34125;BMP280;20110;53.120;5.786;2023-02-11T03:32:50;103116.59;;;14.04
34125;BMP280;20110;53.120;5.786;2023-02-11T03:35:26;103126.47;;;14.35
34125;BMP280;20110;53.120;5.786;2023-02-11T03:38:08;103125.66;;;14.23
34125;BMP280;20110;53.120;5.786;2023-02-11T03:40:39;103061.84;;;13.88
34125;BMP280;20110;53.120;5.786;2023-02-11T03:43:24;103045.81;;;13.83
34125;BMP280;20110;53.120;5.786;2023-02-11T03:45:53;103109.91;;;14.25
34125;BMP280;20110;53.120;5.786;2023-02-11T03:48:36;103126.19;;;14.27
34125;BMP280;20110;53.120;5.786;2023-02-11T03:51:08;103095.03;;;14.19
34125;BMP280;20110;53.120;5.786;2023-02-11T03:53:37;103091.22;;;14.25
34125;BMP280;20110;53.120;5.786;2023-02-11T03:56:12;103050.47;;;13.94
34125;BMP280;20110;53.120;5.786;2023-02-11T03:58:39;103082.84;;;14.12
34125;BMP280;20110;53.120;5.786;2023-02-11T04:01:06;103084.59;;;14.15
34125;BMP280;20110;53.120;5.786;2023-02-11T04:03:34;103059.19;;;13.88
34125;BMP280;20110;53.120;5.786;2023-02-11T04:06:00;103132.28;;;14.28
34125;BMP280;20110;53.120;5.786;2023-02-11T04:08:26;103134.72;;;14.26
34125;BMP280;20110;53.120;5.786;2023-02-11T04:10:52;103080.59;;;13.94
34125;BMP280;20110;53.120;5.786;2023-02-11T04:13:17;103087.66;;;14.03
34125;BMP280;20110;53.120;5.786;2023-02-11T04:15:43;103086.06;;;14.16
34125;BMP280;20110;53.120;5.786;2023-02-11T04:18:09;103117.75;;;14.40
34125;BMP280;20110;53.120;5.786;2023-02-11T04:20:35;103109.47;;;14.33
34125;BMP280;20110;53.120;5.786;2023-02-11T04:23:01;103144.25;;;14.44
34125;BMP280;20110;53.120;5.786;2023-02-11T04:25:27;103137.69;;;14.39
34125;BMP280;20110;53.120;5.786;2023-02-11T04:27:52;103103.25;;;14.10
34125;BMP280;20110;53.120;5.786;2023-02-11T04:30:18;103106.34;;;14.03
34125;BMP280;20110;53.120;5.786;2023-02-11T04:32:44;103118.31;;;14.13
34125;BMP280;20110;53.120;5.786;2023-02-11T04:35:10;103085.69;;;13.98
34125;BMP280;20110;53.120;5.786;2023-02-11T04:37:36;103135.00;;;14.39
34125;BMP280;20110;53.120;5.786;2023-02-11T04:40:02;103121.78;;;14.24
34125;BMP280;20110;53.120;5.786;2023-02-11T04:42:28;103119.41;;;14.26
34125;BMP280;20110;53.120;5.786;2023-02-11T04:44:53;103126.44;;;14.29
34125;BMP280;20110;53.120;5.786;2023-02-11T04:47:19;103119.09;;;14.19
34125;BMP280;20110;53.120;5.786;2023-02-11T04:49:45;103103.25;;;14.10
34125;BMP280;20110;53.120;5.786;2023-02-11T04:52:11;103144.22;;;14.33
34125;BMP280;20110;53.120;5.786;2023-02-11T04:54:37;103112.78;;;14.16
34125;BMP280;20110;53.120;5.786;2023-02-11T04:57:03;103141.44;;;14.58
34125;BMP280;20110;53.120;5.786;2023-02-11T04:59:29;103132.13;;;14.54
34125;BMP280;20110;53.120;5.786;2023-02-11T05:01:55;103140.69;;;14.58
34125;BMP280;20110;53.120;5.786;2023-02-11T05:04:21;103085.03;;;14.08
34125;BMP280;20110;53.120;5.786;2023-02-11T05:06:47;103118.38;;;14.18
34125;BMP280;20110;53.120;5.786;2023-02-11T05:09:13;103120.63;;;14.25
34125;BMP280;20110;53.120;5.786;2023-02-11T05:11:39;103122.25;;;14.23
34125;BMP280;20110;53.120;5.786;2023-02-11T05:14:06;103085.72;;;14.03
34125;BMP280;20110;53.120;5.786;2023-02-11T05:16:32;103083.56;;;14.07
34125;BMP280;20110;53.120;5.786;2023-02-11T05:18:58;103096.03;;;14.21
34125;BMP280;20110;53.120;5.786;2023-02-11T05:21:25;103144.06;;;14.53
34125;BMP280;20110;53.120;5.786;2023-02-11T05:23:51;103119.91;;;14.31
34125;BMP280;20110;53.120;5.786;2023-02-11T05:26:17;103080.03;;;13.90
34125;BMP280;20110;53.120;5.786;2023-02-11T05:28:44;103127.38;;;14.21
34125;BMP280;20110;53.120;5.786;2023-02-11T05:31:11;103156.16;;;14.37
34125;BMP280;20110;53.120;5.786;2023-02-11T05:33:39;103121.78;;;14.19
34125;BMP280;20110;53.120;5.786;2023-02-11T05:36:10;103143.56;;;14.49
34125;BMP280;20110;53.120;5.786;2023-02-11T05:38:36;103116.25;;;14.34
34125;BMP280;20110;53.120;5.786;2023-02-11T05:41:03;103129.72;;;14.56
34125;BMP280;20110;53.120;5.786;2023-02-11T05:43:29;103039.56;;;14.03
34125;BMP280;20110;53.120;5.786;2023-02-11T05:45:55;103137.66;;;14.98
34125;BMP280;20110;53.120;5.786;2023-02-11T05:48:21;103143.03;;;15.10
34125;BMP280;20110;53.120;5.786;2023-02-11T05:50:47;103115.44;;;14.76
34125;BMP280;20110;53.120;5.786;2023-02-11T05:53:13;103144.69;;;14.79
34125;BMP280;20110;53.120;5.786;2023-02-11T05:55:39;103099.25;;;14.31
34125;BMP280;20110;53.120;5.786;2023-02-11T05:58:06;103119.16;;;14.30
34125;BMP280;20110;53.120;5.786;2023-02-11T06:00:32;103125.25;;;14.31
34125;BMP280;20110;53.120;5.786;2023-02-11T06:02:58;103090.53;;;13.94
34125;BMP280;20110;53.120;5.786;2023-02-11T06:05:25;103092.75;;;13.95
34125;BMP280;20110;53.120;5.786;2023-02-11T06:07:51;103119.47;;;14.01
34125;BMP280;20110;53.120;5.786;2023-02-11T06:10:17;103114.31;;;13.91
34125;BMP280;20110;53.120;5.786;2023-02-11T06:12:43;103057.44;;;13.48
34125;BMP280;20110;53.120;5.786;2023-02-11T06:15:09;103107.72;;;13.87
34125;BMP280;20110;53.120;5.786;2023-02-11T06:17:35;103110.72;;;13.63
34125;BMP280;20110;53.120;5.786;2023-02-11T06:20:04;103116.03;;;13.63
34125;BMP280;20110;53.120;5.786;2023-02-11T06:22:30;103129.16;;;13.61
34125;BMP280;20110;53.120;5.786;2023-02-11T06:24:56;103142.59;;;13.72
34125;BMP280;20110;53.120;5.786;2023-02-11T06:27:22;103123.31;;;13.63
34125;BMP280;20110;53.120;5.786;2023-02-11T06:29:48;103148.19;;;13.74
34125;BMP280;20110;53.120;5.786;2023-02-11T06:32:14;103156.50;;;13.82
34125;BMP280;20110;53.120;5.786;2023-02-11T06:34:40;103129.94;;;13.67
34125;BMP280;20110;53.120;5.786;2023-02-11T06:37:06;103142.31;;;13.70
34125;BMP280;20110;53.120;5.786;2023-02-11T06:39:32;103104.53;;;13.26
34125;BMP280;20110;53.120;5.786;2023-02-11T06:41:57;103152.03;;;13.42
34125;BMP280;20110;53.120;5.786;2023-02-11T06:44:23;103097.53;;;13.02
34125;BMP280;20110;53.120;5.786;2023-02-11T06:46:49;103148.44;;;13.25
34125;BMP280;20110;53.120;5.786;2023-02-11T06:49:15;103096.88;;;12.87
34125;BMP280;20110;53.120;5.786;2023-02-11T06:51:41;103099.91;;;13.00
34125;BMP280;20110;53.120;5.786;2023-02-11T06:54:07;103089.66;;;12.93
34125;BMP280;20110;53.120;5.786;2023-02-11T06:56:33;103145.75;;;13.45
34125;BMP280;20110;53.120;5.786;2023-02-11T06:58:59;103147.19;;;13.46
34125;BMP280;20110;53.120;5.786;2023-02-11T07:01:26;103107.09;;;13.14
34125;BMP280;20110;53.120;5.786;2023-02-11T07:03:53;103115.50;;;13.28
34125;BMP280;20110;53.120;5.786;2023-02-11T07:06:22;103116.53;;;13.10
34125;BMP280;20110;53.120;5.786;2023-02-11T07:08:50;103108.78;;;13.12
34125;BMP280;20110;53.120;5.786;2023-02-11T07:11:26;103161.59;;;13.54
34125;BMP280;20110;53.120;5.786;2023-02-11T07:13:58;103065.38;;;13.11
34125;BMP280;20110;53.120;5.786;2023-02-11T07:16:24;103114.19;;;13.43
34125;BMP280;20110;53.120;5.786;2023-02-11T07:18:50;103125.66;;;13.49
34125;BMP280;20110;53.120;5.786;2023-02-11T07:21:20;103141.72;;;13.55
34125;BMP280;20110;53.120;5.786;2023-02-11T07:23:47;103138.22;;;13.43
34125;BMP280;20110;53.120;5.786;2023-02-11T07:26:17;103153.44;;;13.37
34125;BMP280;20110;53.120;5.786;2023-02-11T07:28:44;103135.78;;;13.19
34125;BMP280;20110;53.120;5.786;2023-02-11T07:31:15;103167.97;;;13.36
34125;BMP280;20110;53.120;5.786;2023-02-11T07:33:43;103154.38;;;13.34
34125;BMP280;20110;53.120;5.786;2023-02-11T07:36:13;103163.69;;;13.44
34125;BMP280;20110;53.120;5.786;2023-02-11T07:38:40;103181.34;;;13.62
34125;BMP280;20110;53.120;5.786;2023-02-11T07:41:12;103166.94;;;13.54
34125;BMP280;20110;53.120;5.786;2023-02-11T07:43:39;103077.59;;;12.98
34125;BMP280;20110;53.120;5.786;2023-02-11T07:46:09;103171.47;;;13.48
34125;BMP280;20110;53.120;5.786;2023-02-11T07:48:35;103186.13;;;13.58
34125;BMP280;20110;53.120;5.786;2023-02-11T07:51:26;103182.34;;;13.39
34125;BMP280;20110;53.120;5.786;2023-02-11T07:53:54;103173.66;;;13.44
34125;BMP280;20110;53.120;5.786;2023-02-11T07:56:21;103183.84;;;13.45
34125;BMP280;20110;53.120;5.786;2023-02-11T07:58:48;103166.56;;;13.41
34125;BMP280;20110;53.120;5.786;2023-02-11T08:01:20;103185.97;;;13.62
34125;BMP280;20110;53.120;5.786;2023-02-11T08:03:47;103135.03;;;13.39
34125;BMP280;20110;53.120;5.786;2023-02-11T08:06:16;103142.00;;;13.37
34125;BMP280;20110;53.120;5.786;2023-02-11T08:08:43;103181.34;;;13.62
34125;BMP280;20110;53.120;5.786;2023-02-11T08:11:19;103186.44;;;13.60
34125;BMP280;20110;53.120;5.786;2023-02-11T08:13:46;103170.81;;;13.53
34125;BMP280;20110;53.120;5.786;2023-02-11T08:16:23;103149.22;;;13.51
34125;BMP280;20110;53.120;5.786;2023-02-11T08:18:51;103176.63;;;13.77
34125;BMP280;20110;53.120;5.786;2023-02-11T08:21:19;103151.25;;;13.62
34125;BMP280;20110;53.120;5.786;2023-02-11T08:23:45;103200.59;;;13.98
34125;BMP280;20110;53.120;5.786;2023-02-11T08:26:15;103156.53;;;13.56
34125;BMP280;20110;53.120;5.786;2023-02-11T08:28:44;103214.19;;;13.94
34125;BMP280;20110;53.120;5.786;2023-02-11T08:31:27;103159.66;;;13.54
34125;BMP280;20110;53.120;5.786;2023-02-11T08:33:53;103223.09;;;13.91
34125;BMP280;20110;53.120;5.786;2023-02-11T08:36:26;103198.22;;;13.79
34125;BMP280;20110;53.120;5.786;2023-02-11T08:38:56;103228.84;;;14.10
34125;BMP280;20110;53.120;5.786;2023-02-11T08:41:22;103233.13;;;14.27
34125;BMP280;20110;53.120;5.786;2023-02-11T08:43:47;103177.00;;;13.96
34125;BMP280;20110;53.120;5.786;2023-02-11T08:46:17;103226.59;;;14.34
34125;BMP280;20110;53.120;5.786;2023-02-11T08:48:45;103226.59;;;14.34
34125;BMP280;20110;53.120;5.786;2023-02-11T08:51:19;103226.88;;;14.36
34125;BMP280;20110;53.120;5.786;2023-02-11T08:53:46;103193.03;;;14.27
34125;BMP280;20110;53.120;5.786;2023-02-11T08:56:13;103226.00;;;14.56
34125;BMP280;20110;53.120;5.786;2023-02-11T08:58:41;103228.56;;;14.82
34125;BMP280;20110;53.120;5.786;2023-02-11T09:01:26;103224.22;;;14.90
34125;BMP280;20110;53.120;5.786;2023-02-11T09:03:52;103196.53;;;14.98
34125;BMP280;20110;53.120;5.786;2023-02-11T09:06:20;103227.28;;;15.25
34125;BMP280;20110;53.120;5.786;2023-02-11T09:08:50;103240.94;;;15.38
34125;BMP280;20110;53.120;5.786;2023-02-11T09:11:19;103249.22;;;15.46
34125;BMP280;20110;53.120;5.786;2023-02-11T09:13:46;103225.28;;;15.20
34125;BMP280;20110;53.120;5.786;2023-02-11T09:16:27;103223.13;;;15.41
34125;BMP280;20110;53.120;5.786;2023-02-11T09:18:56;103225.63;;;15.56
34125;BMP280;20110;53.120;5.786;2023-02-11T09:21:23;103253.41;;;16.03
34125;BMP280;20110;53.120;5.786;2023-02-11T09:23:49;103270.41;;;16.33
34125;BMP280;20110;53.120;5.786;2023-02-11T09:26:20;103268.44;;;16.45
34125;BMP280;20110;53.120;5.786;2023-02-11T09:28:47;103278.16;;;16.59
34125;BMP280;20110;53.120;5.786;2023-02-11T09:31:20;103249.88;;;16.64
34125;BMP280;20110;53.120;5.786;2023-02-11T09:33:51;103298.16;;;17.21
34125;BMP280;20110;53.120;5.786;2023-02-11T09:36:22;103265.75;;;17.14
34125;BMP280;20110;53.120;5.786;2023-02-11T09:38:49;103295.81;;;17.07
34125;BMP280;20110;53.120;5.786;2023-02-11T09:44:28;103305.72;;;16.65
34125;BMP280;20110;53.120;5.786;2023-02-11T09:49:46;103216.13;;;15.71
34125;BMP280;20110;53.120;5.786;2023-02-11T09:54:59;103292.09;;;16.41
34125;BMP280;20110;53.120;5.786;2023-02-11T09:57:33;103341.00;;;16.91
34125;BMP280;20110;53.120;5.786;2023-02-11T10:00:14;103344.88;;;17.02
34125;BMP280;20110;53.120;5.786;2023-02-11T10:03:00;103332.91;;;17.08
34125;BMP280;20110;53.120;5.786;2023-02-11T10:06:01;103282.72;;;16.81
34125;BMP280;20110;53.120;5.786;2023-02-11T10:12:12;103346.41;;;17.38
34125;BMP280;20110;53.120;5.786;2023-02-11T10:21:47;103355.22;;;17.39
34125;BMP280;20110;53.120;5.786;2023-02-11T10:23:51;103343.28;;;17.28
34125;BMP280;20110;53.120;5.786;2023-02-11T10:26:19;103280.78;;;16.76
34125;BMP280;20110;53.120;5.786;2023-02-11T10:28:52;103315.59;;;16.98
34125;BMP280;20110;53.120;5.786;2023-02-11T10:31:27;103322.91;;;17.09
34125;BMP280;20110;53.120;5.786;2023-02-11T10:34:09;103338.41;;;17.27
34125;BMP280;20110;53.120;5.786;2023-02-11T10:36:42;103358.75;;;17.58
34125;BMP280;20110;53.120;5.786;2023-02-11T10:39:22;103334.28;;;17.67
34125;BMP280;20110;53.120;5.786;2023-02-11T10:42:06;103356.72;;;17.75
34125;BMP280;20110;53.120;5.786;2023-02-11T10:44:39;103344.50;;;17.68
34125;BMP280;20110;53.120;5.786;2023-02-11T10:47:20;103377.81;;;17.95
34125;BMP280;20110;53.120;5.786;2023-02-11T10:49:47;103378.44;;;17.77
34125;BMP280;20110;53.120;5.786;2023-02-11T10:52:25;103387.50;;;17.68
34125;BMP280;20110;53.120;5.786;2023-02-11T10:55:14;103370.72;;;17.62
34125;BMP280;20110;53.120;5.786;2023-02-11T10:58:01;103380.47;;;17.65
34125;BMP280;20110;53.120;5.786;2023-02-11T11:00:41;103387.22;;;17.83
34125;BMP280;20110;53.120;5.786;2023-02-11T11:03:25;103383.44;;;17.97
34125;BMP280;20110;53.120;5.786;2023-02-11T11:06:04;103395.44;;;18.26
34125;BMP280;20110;53.120;5.786;2023-02-11T11:08:48;103375.50;;;18.40
34125;BMP280;20110;53.120;5.786;2023-02-11T11:11:21;103389.88;;;18.67
34125;BMP280;20110;53.120;5.786;2023-02-11T11:13:58;103370.09;;;18.65
34125;BMP280;20110;53.120;5.786;2023-02-11T11:16:35;103402.47;;;19.02
34125;BMP280;20110;53.120;5.786;2023-02-11T11:21:50;103415.25;;;19.52
34125;BMP280;20110;53.120;5.786;2023-02-11T11:26:54;103383.84;;;19.74
34125;BMP280;20110;53.120;5.786;2023-02-11T11:29:33;103406.22;;;20.00
34125;BMP280;20110;53.120;5.786;2023-02-11T11:32:24;103391.41;;;19.75
34125;BMP280;20110;53.120;5.786;2023-02-11T11:35:27;103404.97;;;19.69
34125;BMP280;20110;53.120;5.786;2023-02-11T11:38:02;103427.44;;;19.59
34125;BMP280;20110;53.120;5.786;2023-02-11T11:40:33;103422.22;;;19.48
34125;BMP280;20110;53.120;5.786;2023-02-11T11:43:16;103423.16;;;19.13
34125;BMP280;20110;53.120;5.786;2023-02-11T11:45:56;103436.59;;;18.94
34125;BMP280;20110;53.120;5.786;2023-02-11T11:48:45;103413.47;;;18.61
34125;BMP280;20110;53.120;5.786;2023-02-11T11:51:12;103416.88;;;18.62
34125;BMP280;20110;53.120;5.786;2023-02-11T11:54:11;103402.00;;;18.55
34125;BMP280;20110;53.120;5.786;2023-02-11T11:57:09;103402.97;;;18.58
34125;BMP280;20110;53.120;5.786;2023-02-11T11:59:36;103398.66;;;18.49
34125;BMP280;20110;53.120;5.786;2023-02-11T12:10:52;103439.06;;;18.68
34125;BMP280;20110;53.120;5.786;2023-02-11T12:16:21;103434.03;;;18.59
34125;BMP280;20110;53.120;5.786;2023-02-11T12:28:02;103438.22;;;18.78
34125;BMP280;20110;53.120;5.786;2023-02-11T12:33:43;103441.72;;;18.73
34125;BMP280;20110;53.120;5.786;2023-02-11T12:36:52;103426.41;;;18.87
34125;BMP280;20110;53.120;5.786;2023-02-11T12:43:00;103425.41;;;18.90
34125;BMP280;20110;53.120;5.786;2023-02-11T12:52:11;103440.69;;;18.76
34125;BMP280;20110;53.120;5.786;2023-02-11T12:54:57;103438.31;;;18.67
34125;BMP280;20110;53.120;5.786;2023-02-11T12:57:28;103418.69;;;18.24
34125;BMP280;20110;53.120;5.786;2023-02-11T13:00:16;103411.28;;;18.00
34125;BMP280;20110;53.120;5.786;2023-02-11T13:05:43;103429.06;;;18.38
34125;BMP280;20110;53.120;5.786;2023-02-11T13:08:28;103389.56;;;18.22
34125;BMP280;20110;53.120;5.786;2023-02-11T13:11:01;103353.53;;;18.06
34125;BMP280;20110;53.120;5.786;2023-02-11T13:16:54;103426.19;;;18.36
34125;BMP280;20110;53.120;5.786;2023-02-11T13:19:40;103421.72;;;18.39
34125;BMP280;20110;53.120;5.786;2023-02-11T13:22:38;103421.72;;;18.39
34125;BMP280;20110;53.120;5.786;2023-02-11T13:25:27;103387.53;;;18.04
34125;BMP280;20110;53.120;5.786;2023-02-11T13:28:36;103392.13;;;18.15
34125;BMP280;20110;53.120;5.786;2023-02-11T13:31:05;103413.78;;;18.22
34125;BMP280;20110;53.120;5.786;2023-02-11T13:33:39;103355.03;;;17.72
34125;BMP280;20110;53.120;5.786;2023-02-11T13:36:09;103416.31;;;18.15
34125;BMP280;20110;53.120;5.786;2023-02-11T13:38:37;103284.50;;;17.19
34125;BMP280;20110;53.120;5.786;2023-02-11T13:47:04;103421.09;;;17.92
34125;BMP280;20110;53.120;5.786;2023-02-11T13:49:48;103426.38;;;18.08
34125;BMP280;20110;53.120;5.786;2023-02-11T13:52:33;103422.16;;;18.13
34125;BMP280;20110;53.120;5.786;2023-02-11T13:55:22;103408.06;;;17.72
34125;BMP280;20110;53.120;5.786;2023-02-11T14:11:49;103445.75;;;18.01
34125;BMP280;20110;53.120;5.786;2023-02-11T14:14:31;103443.69;;;17.78
34125;BMP280;20110;53.120;5.786;2023-02-11T14:19:43;103431.31;;;17.58
34125;BMP280;20110;53.120;5.786;2023-02-11T14:25:04;103399.22;;;17.30
34125;BMP280;20110;53.120;5.786;2023-02-11T14:27:47;103432.78;;;17.59
34125;BMP280;20110;53.120;5.786;2023-02-11T14:30:38;103451.06;;;17.72
34125;BMP280;20110;53.120;5.786;2023-02-11T14:36:07;103437.19;;;17.56
34125;BMP280;20110;53.120;5.786;2023-02-11T14:39:02;103447.00;;;17.54
34125;BMP280;20110;53.120;5.786;2023-02-11T14:41:44;103424.00;;;17.58
34125;BMP280;20110;53.120;5.786;2023-02-11T14:44:24;103442.50;;;17.73
34125;BMP280;20110;53.120;5.786;2023-02-11T14:46:52;103447.38;;;17.69
34125;BMP280;20110;53.120;5.786;2023-02-11T14:49:31;103449.91;;;17.56
34125;BMP280;20110;53.120;5.786;2023-02-11T14:55:30;103423.25;;;17.00
34125;BMP280;20110;53.120;5.786;2023-02-11T14:58:20;103433.03;;;16.75
34125;BMP280;20110;53.120;5.786;2023-02-11T15:01:01;103446.97;;;16.57
34125;BMP280;20110;53.120;5.786;2023-02-11T15:03:38;103407.91;;;16.17
34125;BMP280;20110;53.120;5.786;2023-02-11T15:08:37;103440.34;;;16.47
34125;BMP280;20110;53.120;5.786;2023-02-11T15:11:13;103430.63;;;16.49
34125;BMP280;20110;53.120;5.786;2023-02-11T15:13:40;103436.69;;;16.61
34125;BMP280;20110;53.120;5.786;2023-02-11T15:16:14;103463.31;;;16.59
34125;BMP280;20110;53.120;5.786;2023-02-11T15:18:51;103442.06;;;16.39
34125;BMP280;20110;53.120;5.786;2023-02-11T15:21:25;103424.03;;;16.34
34125;BMP280;20110;53.120;5.786;2023-02-11T15:24:23;103457.22;;;16.64
34125;BMP280;20110;53.120;5.786;2023-02-11T15:27:13;103476.22;;;16.83
34125;BMP280;20110;53.120;5.786;2023-02-11T15:29:47;103468.66;;;16.81
34125;BMP280;20110;53.120;5.786;2023-02-11T15:32:22;103482.56;;;16.85
34125;BMP280;20110;53.120;5.786;2023-02-11T15:34:51;103474.53;;;16.74
34125;BMP280;20110;53.120;5.786;2023-02-11T15:37:28;103475.50;;;16.54
34125;BMP280;20110;53.120;5.786;2023-02-11T15:40:08;103400.00;;;15.74
34125;BMP280;20110;53.120;5.786;2023-02-11T15:42:34;103474.22;;;16.16
34125;BMP280;20110;53.120;5.786;2023-02-11T15:47:55;103461.78;;;16.02
34125;BMP280;20110;53.120;5.786;2023-02-11T15:50:32;103465.91;;;16.03
34125;BMP280;20110;53.120;5.786;2023-02-11T15:53:35;103454.84;;;15.85
34125;BMP280;20110;53.120;5.786;2023-02-11T15:56:35;103460.25;;;15.79
34125;BMP280;20110;53.120;5.786;2023-02-11T16:02:05;103476.94;;;15.57
34125;BMP280;20110;53.120;5.786;2023-02-11T16:04:33;103421.00;;;15.22
34125;BMP280;20110;53.120;5.786;2023-02-11T16:06:59;103477.72;;;15.69
34125;BMP280;20110;53.120;5.786;2023-02-11T16:09:34;103449.63;;;15.53
34125;BMP280;20110;53.120;5.786;2023-02-11T16:12:23;103479.47;;;15.77
34125;BMP280;20110;53.120;5.786;2023-02-11T16:14:49;103464.56;;;15.71
34125;BMP280;20110;53.120;5.786;2023-02-11T16:19:47;103477.00;;;15.74
34125;BMP280;20110;53.120;5.786;2023-02-11T16:22:44;103454.44;;;15.44
34125;BMP280;20110;53.120;5.786;2023-02-11T16:25:21;103475.59;;;15.36
34125;BMP280;20110;53.120;5.786;2023-02-11T16:27:51;103500.88;;;15.29
34125;BMP280;20110;53.120;5.786;2023-02-11T16:30:37;103481.00;;;15.10
34125;BMP280;20110;53.120;5.786;2023-02-11T16:33:03;103490.13;;;15.24
34125;BMP280;20110;53.120;5.786;2023-02-11T16:35:30;103485.03;;;15.26
34125;BMP280;20110;53.120;5.786;2023-02-11T16:37:56;103459.78;;;15.01
34125;BMP280;20110;53.120;5.786;2023-02-11T16:40:22;103499.31;;;15.17